sensor_id;sensor_type;location;lat;lon;timestamp;pressure;altitude;pressure_sealevel;temperature;humidity
70323;BME280;57735;56.264;43.898;2023-05-24T00:00:21;101003.69;;;20.50;34.61
70323;BME280;57735;56.264;43.898;2023-05-24T00:02:52;101000.34;;;20.48;34.74
70323;BME280;57735;56.264;43.898;2023-05-24T00:05:23;100981.78;;;20.45;34.79
70323;BME280;57735;56.264;43.898;2023-05-24T00:07:53;100989.50;;;20.42;34.79
70323;BME280;57735;56.264;43.898;2023-05-24T00:10:24;100969.06;;;20.39;34.72
70323;BME280;57735;56.264;43.898;2023-05-24T00:12:58;100992.81;;;20.37;34.93
70323;BME280;57735;56.264;43.898;2023-05-24T00:15:29;101005.69;;;20.35;35.18
70323;BME280;57735;56.264;43.898;2023-05-24T00:18:00;101000.66;;;20.32;35.25
70323;BME280;57735;56.264;43.898;2023-05-24T00:20:31;100995.66;;;20.29;35.31
70323;BME280;57735;56.264;43.898;2023-05-24T00:23:02;101001.06;;;20.29;35.27
70323;BME280;57735;56.264;43.898;2023-05-24T00:25:33;101000.22;;;20.29;35.29
70323;BME280;57735;56.264;43.898;2023-05-24T00:28:03;100987.97;;;20.26;35.36
70323;BME280;57735;56.264;43.898;2023-05-24T00:30:34;100993.78;;;20.23;35.75
70323;BME280;57735;56.264;43.898;2023-05-24T00:33:05;100988.94;;;20.18;36.06
70323;BME280;57735;56.264;43.898;2023-05-24T00:35:36;100984.78;;;20.16;35.94
70323;BME280;57735;56.264;43.898;2023-05-24T00:38:07;100980.78;;;20.12;36.22
70323;BME280;57735;56.264;43.898;2023-05-24T00:40:38;100977.47;;;20.10;36.21
70323;BME280;57735;56.264;43.898;2023-05-24T00:43:09;100976.41;;;20.04;36.47
70323;BME280;57735;56.264;43.898;2023-05-24T00:45:40;100968.88;;;20.00;36.57
70323;BME280;57735;56.264;43.898;2023-05-24T00:48:11;100968.84;;;19.93;36.91
70323;BME280;57735;56.264;43.898;2023-05-24T00:50:44;100961.97;;;19.91;36.76
70323;BME280;57735;56.264;43.898;2023-05-24T00:53:15;100964.03;;;19.89;36.69
70323;BME280;57735;56.264;43.898;2023-05-24T00:55:46;100960.69;;;19.86;36.62
70323;BME280;57735;56.264;43.898;2023-05-24T00:58:20;100956.31;;;19.85;36.69
70323;BME280;57735;56.264;43.898;2023-05-24T01:00:58;100970.22;;;19.82;36.77
70323;BME280;57735;56.264;43.898;2023-05-24T01:03:29;100969.19;;;19.83;36.71
70323;BME280;57735;56.264;43.898;2023-05-24T01:06:03;100968.16;;;19.84;36.62
70323;BME280;57735;56.264;43.898;2023-05-24T01:17:11;100958.13;;;19.78;36.70
70323;BME280;57735;56.264;43.898;2023-05-24T01:19:57;100955.66;;;19.77;36.77
70323;BME280;57735;56.264;43.898;2023-05-24T01:25:44;100950.84;;;19.72;37.05
70323;BME280;57735;56.264;43.898;2023-05-24T01:28:20;100950.59;;;19.67;37.25
70323;BME280;57735;56.264;43.898;2023-05-24T01:30:52;100950.59;;;19.67;37.16
70323;BME280;57735;56.264;43.898;2023-05-24T01:33:24;100948.91;;;19.66;37.28
70323;BME280;57735;56.264;43.898;2023-05-24T01:35:55;100947.25;;;19.65;37.17
70323;BME280;57735;56.264;43.898;2023-05-24T01:38:31;100941.19;;;19.63;37.37
70323;BME280;57735;56.264;43.898;2023-05-24T01:44:10;100940.13;;;19.58;37.34
70323;BME280;57735;56.264;43.898;2023-05-24T01:46:44;100942.19;;;19.56;37.60
70323;BME280;57735;56.264;43.898;2023-05-24T01:49:21;100946.13;;;19.53;37.83
70323;BME280;57735;56.264;43.898;2023-05-24T01:52:10;100959.66;;;19.53;37.91
70323;BME280;57735;56.264;43.898;2023-05-24T01:54:50;100957.34;;;19.50;38.03
70323;BME280;57735;56.264;43.898;2023-05-24T01:57:22;100950.41;;;19.47;38.08
70323;BME280;57735;56.264;43.898;2023-05-24T01:59:53;100950.63;;;19.46;38.24
70323;BME280;57735;56.264;43.898;2023-05-24T02:02:25;100956.03;;;19.46;38.07
70323;BME280;57735;56.264;43.898;2023-05-24T02:04:56;100956.66;;;19.48;38.19
70323;BME280;57735;56.264;43.898;2023-05-24T02:07:28;100940.44;;;19.48;38.31
70323;BME280;57735;56.264;43.898;2023-05-24T02:09:59;100947.72;;;19.47;38.41
70323;BME280;57735;56.264;43.898;2023-05-24T02:12:30;100911.91;;;19.45;38.01
70323;BME280;57735;56.264;43.898;2023-05-24T02:15:01;100925.25;;;19.47;38.03
70323;BME280;57735;56.264;43.898;2023-05-24T02:17:40;100892.78;;;19.47;38.57
70323;BME280;57735;56.264;43.898;2023-05-24T02:20:12;100945.00;;;19.47;38.94
70323;BME280;57735;56.264;43.898;2023-05-24T02:22:43;100952.28;;;19.47;38.86
70323;BME280;57735;56.264;43.898;2023-05-24T02:25:14;100941.47;;;19.47;38.82
70323;BME280;57735;56.264;43.898;2023-05-24T02:27:44;100943.34;;;19.46;39.06
70323;BME280;57735;56.264;43.898;2023-05-24T02:30:16;100948.75;;;19.46;39.12
70323;BME280;57735;56.264;43.898;2023-05-24T02:32:47;100942.50;;;19.46;39.01
70323;BME280;57735;56.264;43.898;2023-05-24T02:35:18;100941.88;;;19.44;39.09
70323;BME280;57735;56.264;43.898;2023-05-24T02:37:50;100954.34;;;19.45;38.99
70323;BME280;57735;56.264;43.898;2023-05-24T02:40:21;100948.34;;;19.43;39.08
70323;BME280;57735;56.264;43.898;2023-05-24T02:42:52;100939.56;;;19.41;39.13
70323;BME280;57735;56.264;43.898;2023-05-24T02:45:25;100945.81;;;19.41;38.80
70323;BME280;57735;56.264;43.898;2023-05-24T02:47:56;100947.28;;;19.44;38.71
70323;BME280;57735;56.264;43.898;2023-05-24T02:50:27;100953.97;;;19.48;38.69
70323;BME280;57735;56.264;43.898;2023-05-24T02:52:58;100949.59;;;19.47;38.95
70323;BME280;57735;56.264;43.898;2023-05-24T02:55:28;100962.06;;;19.48;39.16
70323;BME280;57735;56.264;43.898;2023-05-24T02:57:59;100956.84;;;19.46;39.11
70323;BME280;57735;56.264;43.898;2023-05-24T03:00:30;100950.81;;;19.44;39.18
70323;BME280;57735;56.264;43.898;2023-05-24T03:03:01;100953.81;;;19.49;38.97
70323;BME280;57735;56.264;43.898;2023-05-24T03:05:35;100953.03;;;19.56;38.95
70323;BME280;57735;56.264;43.898;2023-05-24T03:08:06;100953.88;;;19.63;39.05
70323;BME280;57735;56.264;43.898;2023-05-24T03:10:42;100948.47;;;19.63;39.18
70323;BME280;57735;56.264;43.898;2023-05-24T03:13:14;100956.16;;;19.59;39.09
70323;BME280;57735;56.264;43.898;2023-05-24T03:15:45;100950.94;;;19.58;38.99
70323;BME280;57735;56.264;43.898;2023-05-24T03:18:16;100945.75;;;19.56;39.45
70323;BME280;57735;56.264;43.898;2023-05-24T03:20:47;100960.69;;;19.52;39.59
70323;BME280;57735;56.264;43.898;2023-05-24T03:23:18;100951.25;;;19.48;39.73
70323;BME280;57735;56.264;43.898;2023-05-24T03:25:48;100943.97;;;19.42;39.57
70323;BME280;57735;56.264;43.898;2023-05-24T03:28:19;100955.16;;;19.39;39.74
70323;BME280;57735;56.264;43.898;2023-05-24T03:30:51;100942.88;;;19.36;39.73
70323;BME280;57735;56.264;43.898;2023-05-24T03:33:22;100943.25;;;19.33;39.71
70323;BME280;57735;56.264;43.898;2023-05-24T03:35:53;100947.25;;;19.37;39.87
70323;BME280;57735;56.264;43.898;2023-05-24T03:38:24;100956.00;;;19.39;39.69
70323;BME280;57735;56.264;43.898;2023-05-24T03:40:57;100954.78;;;19.42;39.61
70323;BME280;57735;56.264;43.898;2023-05-24T03:43:29;100950.63;;;19.46;39.59
70323;BME280;57735;56.264;43.898;2023-05-24T03:45:59;100956.03;;;19.46;39.39
70323;BME280;57735;56.264;43.898;2023-05-24T03:48:30;100961.03;;;19.49;39.57
70323;BME280;57735;56.264;43.898;2023-05-24T03:51:01;100946.69;;;19.48;40.58
70323;BME280;57735;56.264;43.898;2023-05-24T03:53:32;100934.88;;;19.49;41.33
70323;BME280;57735;56.264;43.898;2023-05-24T03:56:02;100940.22;;;19.43;40.36
70323;BME280;57735;56.264;43.898;2023-05-24T03:58:33;100942.03;;;19.36;40.44
70323;BME280;57735;56.264;43.898;2023-05-24T04:01:04;100928.91;;;19.33;40.54
70323;BME280;57735;56.264;43.898;2023-05-24T04:03:36;100923.50;;;19.33;40.66
70323;BME280;57735;56.264;43.898;2023-05-24T04:06:06;100911.00;;;19.32;40.46
70323;BME280;57735;56.264;43.898;2023-05-24T04:08:37;100908.94;;;19.34;40.50
70323;BME280;57735;56.264;43.898;2023-05-24T04:11:10;100906.69;;;19.37;40.55
70323;BME280;57735;56.264;43.898;2023-05-24T04:13:41;100897.16;;;19.41;40.53
70323;BME280;57735;56.264;43.898;2023-05-24T04:16:12;100898.22;;;19.47;40.56
70323;BME280;57735;56.264;43.898;2023-05-24T04:18:43;100888.69;;;19.51;40.57
70323;BME280;57735;56.264;43.898;2023-05-24T04:21:15;100889.97;;;19.55;40.94
70323;BME280;57735;56.264;43.898;2023-05-24T04:23:48;100894.34;;;19.56;40.70
70323;BME280;57735;56.264;43.898;2023-05-24T04:26:19;100904.34;;;19.56;40.51
70323;BME280;57735;56.264;43.898;2023-05-24T04:28:50;100896.63;;;19.52;40.97
70323;BME280;57735;56.264;43.898;2023-05-24T04:31:22;100907.16;;;19.47;41.50
70323;BME280;57735;56.264;43.898;2023-05-24T04:33:52;100897.94;;;19.35;42.40
70323;BME280;57735;56.264;43.898;2023-05-24T04:36:24;100888.53;;;19.25;43.46
70323;BME280;57735;56.264;43.898;2023-05-24T04:39:00;100892.00;;;19.18;44.35
70323;BME280;57735;56.264;43.898;2023-05-24T04:41:34;100896.56;;;19.18;43.78
70323;BME280;57735;56.264;43.898;2023-05-24T04:44:05;100893.28;;;19.23;43.62
70323;BME280;57735;56.264;43.898;2023-05-24T04:46:37;100894.41;;;19.35;44.12
70323;BME280;57735;56.264;43.898;2023-05-24T04:49:07;100883.84;;;19.46;43.57
70323;BME280;57735;56.264;43.898;2023-05-24T04:51:38;100870.84;;;19.57;43.54
70323;BME280;57735;56.264;43.898;2023-05-24T04:54:09;100875.47;;;19.69;44.42
70323;BME280;57735;56.264;43.898;2023-05-24T04:56:40;100862.19;;;19.81;43.93
70323;BME280;57735;56.264;43.898;2023-05-24T04:59:11;100847.91;;;19.94;43.48
70323;BME280;57735;56.264;43.898;2023-05-24T05:01:42;100853.16;;;20.15;43.08
70323;BME280;57735;56.264;43.898;2023-05-24T05:04:13;100845.28;;;20.33;42.77
70323;BME280;57735;56.264;43.898;2023-05-24T05:06:44;100849.94;;;20.52;42.08
70323;BME280;57735;56.264;43.898;2023-05-24T05:09:15;100849.72;;;20.87;41.21
70323;BME280;57735;56.264;43.898;2023-05-24T05:11:46;100858.06;;;21.05;40.31
70323;BME280;57735;56.264;43.898;2023-05-24T05:14:17;100854.09;;;21.28;39.58
70323;BME280;57735;56.264;43.898;2023-05-24T05:16:48;100832.94;;;21.49;39.14
70323;BME280;57735;56.264;43.898;2023-05-24T05:19:19;100836.44;;;21.63;39.43
70323;BME280;57735;56.264;43.898;2023-05-24T05:21:50;100820.06;;;21.83;38.53
70323;BME280;57735;56.264;43.898;2023-05-24T05:24:23;100810.56;;;21.99;37.45
70323;BME280;57735;56.264;43.898;2023-05-24T05:26:54;100824.91;;;22.19;37.47
70323;BME280;57735;56.264;43.898;2023-05-24T05:29:27;100828.72;;;22.43;37.41
70323;BME280;57735;56.264;43.898;2023-05-24T05:31:58;100838.25;;;22.52;36.73
70323;BME280;57735;56.264;43.898;2023-05-24T05:34:28;100831.78;;;22.53;36.56
70323;BME280;57735;56.264;43.898;2023-05-24T05:36:59;100827.88;;;22.42;36.83
70323;BME280;57735;56.264;43.898;2023-05-24T05:39:30;100828.56;;;22.31;36.88
70323;BME280;57735;56.264;43.898;2023-05-24T05:42:01;100827.00;;;22.17;37.01
70323;BME280;57735;56.264;43.898;2023-05-24T05:44:32;100822.81;;;22.21;37.10
70323;BME280;57735;56.264;43.898;2023-05-24T05:47:03;100817.50;;;22.33;37.32
70323;BME280;57735;56.264;43.898;2023-05-24T05:49:36;100811.75;;;22.47;36.95
70323;BME280;57735;56.264;43.898;2023-05-24T05:52:07;100815.25;;;22.54;36.86
70323;BME280;57735;56.264;43.898;2023-05-24T05:54:41;100817.09;;;22.60;37.07
70323;BME280;57735;56.264;43.898;2023-05-24T05:57:14;100813.06;;;22.63;36.81
70323;BME280;57735;56.264;43.898;2023-05-24T05:59:48;100816.19;;;22.67;37.27
70323;BME280;57735;56.264;43.898;2023-05-24T06:02:18;100817.22;;;22.66;37.00
70323;BME280;57735;56.264;43.898;2023-05-24T06:04:51;100817.00;;;22.67;37.31
70323;BME280;57735;56.264;43.898;2023-05-24T06:07:22;100814.47;;;22.79;37.64
70323;BME280;57735;56.264;43.898;2023-05-24T06:09:53;100807.50;;;22.83;37.32
70323;BME280;57735;56.264;43.898;2023-05-24T06:12:26;100805.22;;;22.80;37.57
70323;BME280;57735;56.264;43.898;2023-05-24T06:14:57;100810.44;;;22.81;37.44
70323;BME280;57735;56.264;43.898;2023-05-24T06:17:29;100808.88;;;22.92;37.63
70323;BME280;57735;56.264;43.898;2023-05-24T06:20:03;100803.69;;;23.09;37.39
70323;BME280;57735;56.264;43.898;2023-05-24T06:22:39;100800.91;;;23.33;37.31
70323;BME280;57735;56.264;43.898;2023-05-24T06:25:13;100798.38;;;23.50;36.76
70323;BME280;57735;56.264;43.898;2023-05-24T06:27:45;100796.38;;;23.64;36.45
70323;BME280;57735;56.264;43.898;2023-05-24T06:30:18;100795.38;;;23.77;36.36
70323;BME280;57735;56.264;43.898;2023-05-24T06:32:57;100796.41;;;23.94;35.71
70323;BME280;57735;56.264;43.898;2023-05-24T06:35:28;100782.88;;;23.99;35.91
70323;BME280;57735;56.264;43.898;2023-05-24T06:38:02;100786.00;;;24.02;34.87
70323;BME280;57735;56.264;43.898;2023-05-24T06:40:33;100795.16;;;24.20;34.69
70323;BME280;57735;56.264;43.898;2023-05-24T06:43:04;100785.03;;;24.27;33.94
70323;BME280;57735;56.264;43.898;2023-05-24T06:45:39;100779.94;;;24.30;33.95
70323;BME280;57735;56.264;43.898;2023-05-24T06:48:11;100781.97;;;24.35;34.05
70323;BME280;57735;56.264;43.898;2023-05-24T06:50:42;100781.72;;;24.48;33.51
70323;BME280;57735;56.264;43.898;2023-05-24T06:53:17;100777.72;;;24.51;32.97
70323;BME280;57735;56.264;43.898;2023-05-24T06:55:47;100774.75;;;24.52;33.31
70323;BME280;57735;56.264;43.898;2023-05-24T06:58:18;100776.78;;;24.57;33.09
70323;BME280;57735;56.264;43.898;2023-05-24T07:00:49;100772.63;;;24.66;33.04
70323;BME280;57735;56.264;43.898;2023-05-24T07:03:20;100783.56;;;24.78;32.93
70323;BME280;57735;56.264;43.898;2023-05-24T07:05:54;100763.63;;;24.89;32.88
70323;BME280;57735;56.264;43.898;2023-05-24T07:08:25;100772.06;;;24.99;32.44
70323;BME280;57735;56.264;43.898;2023-05-24T07:10:56;100773.47;;;25.13;32.23
70323;BME280;57735;56.264;43.898;2023-05-24T07:13:26;100773.94;;;25.10;32.42
70323;BME280;57735;56.264;43.898;2023-05-24T07:15:57;100764.59;;;25.06;32.49
70323;BME280;57735;56.264;43.898;2023-05-24T07:18:33;100778.94;;;25.01;32.75
70323;BME280;57735;56.264;43.898;2023-05-24T07:21:04;100784.63;;;25.00;32.63
70323;BME280;57735;56.264;43.898;2023-05-24T07:23:34;100774.19;;;24.97;33.11
70323;BME280;57735;56.264;43.898;2023-05-24T07:26:09;100781.56;;;24.96;33.18
70323;BME280;57735;56.264;43.898;2023-05-24T07:28:40;100784.03;;;24.98;33.17
70323;BME280;57735;56.264;43.898;2023-05-24T07:31:11;100776.91;;;25.09;33.46
70323;BME280;57735;56.264;43.898;2023-05-24T07:33:42;100775.97;;;25.03;33.38
70323;BME280;57735;56.264;43.898;2023-05-24T07:36:13;100774.75;;;25.22;33.30
70323;BME280;57735;56.264;43.898;2023-05-24T07:38:45;100775.28;;;25.48;33.56
70323;BME280;57735;56.264;43.898;2023-05-24T07:41:16;100769.78;;;25.71;33.17
70323;BME280;57735;56.264;43.898;2023-05-24T07:43:47;100778.78;;;26.00;32.92
70323;BME280;57735;56.264;43.898;2023-05-24T07:46:18;100771.59;;;26.11;32.98
70323;BME280;57735;56.264;43.898;2023-05-24T07:48:49;100779.47;;;26.07;33.00
70323;BME280;57735;56.264;43.898;2023-05-24T07:51:23;100779.00;;;26.27;32.74
70323;BME280;57735;56.264;43.898;2023-05-24T07:53:55;100770.59;;;26.17;32.84
70323;BME280;57735;56.264;43.898;2023-05-24T07:56:25;100770.34;;;26.18;32.95
70323;BME280;57735;56.264;43.898;2023-05-24T07:58:57;100767.34;;;26.31;33.02
70323;BME280;57735;56.264;43.898;2023-05-24T08:01:34;100761.88;;;26.31;33.69
70323;BME280;57735;56.264;43.898;2023-05-24T08:04:05;100767.72;;;26.23;33.43
70323;BME280;57735;56.264;43.898;2023-05-24T08:06:39;100750.34;;;26.13;33.40
70323;BME280;57735;56.264;43.898;2023-05-24T08:09:10;100756.59;;;25.96;33.73
70323;BME280;57735;56.264;43.898;2023-05-24T08:11:41;100762.25;;;26.06;34.27
70323;BME280;57735;56.264;43.898;2023-05-24T08:14:12;100757.19;;;26.15;34.46
70323;BME280;57735;56.264;43.898;2023-05-24T08:16:43;100754.41;;;26.27;33.91
70323;BME280;57735;56.264;43.898;2023-05-24T08:19:16;100765.13;;;26.45;33.81
70323;BME280;57735;56.264;43.898;2023-05-24T08:21:47;100756.00;;;26.56;34.28
70323;BME280;57735;56.264;43.898;2023-05-24T08:24:19;100753.84;;;26.58;34.10
70323;BME280;57735;56.264;43.898;2023-05-24T08:26:50;100762.28;;;26.57;34.06
70323;BME280;57735;56.264;43.898;2023-05-24T08:29:22;100764.78;;;26.58;34.00
70323;BME280;57735;56.264;43.898;2023-05-24T08:31:53;100764.28;;;26.45;34.13
70323;BME280;57735;56.264;43.898;2023-05-24T08:34:24;100764.44;;;26.38;34.27
70323;BME280;57735;56.264;43.898;2023-05-24T08:36:55;100768.84;;;26.39;34.49
70323;BME280;57735;56.264;43.898;2023-05-24T08:39:26;100764.69;;;26.36;34.62
70323;BME280;57735;56.264;43.898;2023-05-24T08:41:57;100778.50;;;26.13;34.51
70323;BME280;57735;56.264;43.898;2023-05-24T08:44:29;100775.47;;;26.43;34.66
70323;BME280;57735;56.264;43.898;2023-05-24T08:47:01;100770.81;;;26.77;34.32
70323;BME280;57735;56.264;43.898;2023-05-24T08:49:35;100785.97;;;26.85;35.42
70323;BME280;57735;56.264;43.898;2023-05-24T08:52:07;100765.22;;;26.89;35.00
70323;BME280;57735;56.264;43.898;2023-05-24T08:54:39;100765.56;;;26.92;34.95
70323;BME280;57735;56.264;43.898;2023-05-24T08:57:10;100773.25;;;27.12;34.92
70323;BME280;57735;56.264;43.898;2023-05-24T08:59:42;100763.97;;;27.35;34.35
70323;BME280;57735;56.264;43.898;2023-05-24T09:02:14;100765.81;;;27.29;34.34
70323;BME280;57735;56.264;43.898;2023-05-24T09:04:48;100775.22;;;27.17;34.91
70323;BME280;57735;56.264;43.898;2023-05-24T09:07:21;100766.91;;;27.28;34.61
70323;BME280;57735;56.264;43.898;2023-05-24T09:10:05;100765.25;;;27.27;35.11
70323;BME280;57735;56.264;43.898;2023-05-24T09:12:38;100770.66;;;27.22;35.34
70323;BME280;57735;56.264;43.898;2023-05-24T09:15:09;100775.22;;;27.17;34.81
70323;BME280;57735;56.264;43.898;2023-05-24T09:17:40;100774.91;;;27.13;34.72
70323;BME280;57735;56.264;43.898;2023-05-24T09:20:12;100764.00;;;27.18;34.63
70323;BME280;57735;56.264;43.898;2023-05-24T09:22:50;100775.41;;;27.32;35.02
70323;BME280;57735;56.264;43.898;2023-05-24T09:25:23;100767.72;;;27.29;35.15
70323;BME280;57735;56.264;43.898;2023-05-24T09:27:57;100771.41;;;27.18;35.19
70323;BME280;57735;56.264;43.898;2023-05-24T09:30:28;100783.31;;;27.06;35.81
70323;BME280;57735;56.264;43.898;2023-05-24T09:33:00;100784.00;;;26.97;36.29
70323;BME280;57735;56.264;43.898;2023-05-24T09:35:31;100787.38;;;26.87;36.54
70323;BME280;57735;56.264;43.898;2023-05-24T09:38:02;100775.84;;;26.85;35.96
70323;BME280;57735;56.264;43.898;2023-05-24T09:40:35;100782.63;;;26.83;35.68
70323;BME280;57735;56.264;43.898;2023-05-24T09:43:08;100780.22;;;26.86;35.74
70323;BME280;57735;56.264;43.898;2023-05-24T09:45:44;100791.25;;;26.91;36.29
70323;BME280;57735;56.264;43.898;2023-05-24T09:48:16;100778.31;;;26.87;36.53
70323;BME280;57735;56.264;43.898;2023-05-24T09:51:04;100787.81;;;26.96;36.50
70323;BME280;57735;56.264;43.898;2023-05-24T09:53:36;100776.09;;;27.00;36.58
70323;BME280;57735;56.264;43.898;2023-05-24T09:56:09;100782.91;;;26.98;36.42
70323;BME280;57735;56.264;43.898;2023-05-24T09:58:40;100780.56;;;26.90;36.70
70323;BME280;57735;56.264;43.898;2023-05-24T10:01:14;100779.66;;;26.84;36.61
70323;BME280;57735;56.264;43.898;2023-05-24T10:03:55;100780.72;;;26.83;36.71
70323;BME280;57735;56.264;43.898;2023-05-24T10:06:30;100776.88;;;26.79;37.47
70323;BME280;57735;56.264;43.898;2023-05-24T10:09:07;100787.72;;;26.74;37.52
70323;BME280;57735;56.264;43.898;2023-05-24T10:11:40;100785.34;;;26.61;37.89
70323;BME280;57735;56.264;43.898;2023-05-24T10:14:11;100782.41;;;26.51;38.30
70323;BME280;57735;56.264;43.898;2023-05-24T10:16:47;100778.78;;;26.45;38.20
70323;BME280;57735;56.264;43.898;2023-05-24T10:19:20;100791.38;;;26.46;38.35
70323;BME280;57735;56.264;43.898;2023-05-24T10:21:54;100790.63;;;26.34;38.25
70323;BME280;57735;56.264;43.898;2023-05-24T10:24:34;100777.53;;;26.36;38.53
70323;BME280;57735;56.264;43.898;2023-05-24T10:27:09;100784.56;;;26.49;38.43
70323;BME280;57735;56.264;43.898;2023-05-24T10:32:18;100782.94;;;26.64;38.48
70323;BME280;57735;56.264;43.898;2023-05-24T10:34:50;100787.06;;;26.67;38.30
70323;BME280;57735;56.264;43.898;2023-05-24T10:37:23;100784.84;;;26.64;38.59
70323;BME280;57735;56.264;43.898;2023-05-24T10:39:58;100779.88;;;26.61;37.75
70323;BME280;57735;56.264;43.898;2023-05-24T10:42:30;100782.00;;;26.75;38.08
70323;BME280;57735;56.264;43.898;2023-05-24T10:47:54;100795.78;;;26.81;38.24
70323;BME280;57735;56.264;43.898;2023-05-24T10:50:27;100791.75;;;26.88;38.30
70323;BME280;57735;56.264;43.898;2023-05-24T10:53:18;100791.13;;;26.98;37.99
70323;BME280;57735;56.264;43.898;2023-05-24T10:56:00;100789.16;;;27.15;38.09
70323;BME280;57735;56.264;43.898;2023-05-24T10:58:44;100787.41;;;27.26;37.58
70323;BME280;57735;56.264;43.898;2023-05-24T11:01:29;100792.44;;;27.56;37.35
70323;BME280;57735;56.264;43.898;2023-05-24T11:06:48;100792.75;;;27.81;37.31
70323;BME280;57735;56.264;43.898;2023-05-24T11:09:23;100790.63;;;27.88;37.04
70323;BME280;57735;56.264;43.898;2023-05-24T11:12:06;100797.78;;;27.89;36.94
70323;BME280;57735;56.264;43.898;2023-05-24T11:14:38;100793.84;;;27.80;37.22
70323;BME280;57735;56.264;43.898;2023-05-24T11:17:14;100781.97;;;27.53;37.26
70323;BME280;57735;56.264;43.898;2023-05-24T11:19:49;100788.84;;;27.12;38.25
70323;BME280;57735;56.264;43.898;2023-05-24T11:22:23;100782.81;;;26.93;38.41
70323;BME280;57735;56.264;43.898;2023-05-24T11:24:55;100787.28;;;26.99;38.95
70323;BME280;57735;56.264;43.898;2023-05-24T11:27:30;100781.28;;;27.19;38.49
70323;BME280;57735;56.264;43.898;2023-05-24T11:30:03;100775.34;;;27.49;37.69
70323;BME280;57735;56.264;43.898;2023-05-24T11:32:38;100770.47;;;27.72;37.86
70323;BME280;57735;56.264;43.898;2023-05-24T11:35:11;100772.59;;;27.92;38.05
70323;BME280;57735;56.264;43.898;2023-05-24T11:37:43;100780.06;;;28.02;37.81
70323;BME280;57735;56.264;43.898;2023-05-24T11:40:15;100776.41;;;27.91;37.85
70323;BME280;57735;56.264;43.898;2023-05-24T11:42:49;100776.16;;;28.20;37.71
70323;BME280;57735;56.264;43.898;2023-05-24T11:45:20;100777.06;;;28.25;37.47
70323;BME280;57735;56.264;43.898;2023-05-24T11:47:55;100780.75;;;28.41;37.75
70323;BME280;57735;56.264;43.898;2023-05-24T11:50:26;100777.66;;;28.69;36.90
70323;BME280;57735;56.264;43.898;2023-05-24T11:53:02;100772.16;;;29.06;36.45
70323;BME280;57735;56.264;43.898;2023-05-24T11:55:33;100778.56;;;29.22;35.89
70323;BME280;57735;56.264;43.898;2023-05-24T11:58:10;100765.59;;;29.07;35.90
70323;BME280;57735;56.264;43.898;2023-05-24T12:00:47;100766.97;;;29.10;36.48
70323;BME280;57735;56.264;43.898;2023-05-24T12:03:18;100763.22;;;29.26;35.81
70323;BME280;57735;56.264;43.898;2023-05-24T12:05:48;100755.63;;;29.43;34.94
70323;BME280;57735;56.264;43.898;2023-05-24T12:08:19;100761.16;;;29.48;35.09
70323;BME280;57735;56.264;43.898;2023-05-24T12:10:51;100748.88;;;29.97;34.09
70323;BME280;57735;56.264;43.898;2023-05-24T12:13:24;100744.44;;;29.65;34.77
70323;BME280;57735;56.264;43.898;2023-05-24T12:15:56;100753.34;;;29.30;34.77
70323;BME280;57735;56.264;43.898;2023-05-24T12:18:28;100759.31;;;29.17;35.22
70323;BME280;57735;56.264;43.898;2023-05-24T12:20:59;100764.34;;;28.83;35.45
70323;BME280;57735;56.264;43.898;2023-05-24T12:23:30;100769.81;;;28.83;35.37
70323;BME280;57735;56.264;43.898;2023-05-24T12:26:02;100757.34;;;29.07;35.20
70323;BME280;57735;56.264;43.898;2023-05-24T12:28:36;100758.22;;;29.18;35.46
70323;BME280;57735;56.264;43.898;2023-05-24T12:31:08;100752.38;;;28.62;36.00
70323;BME280;57735;56.264;43.898;2023-05-24T12:33:39;100757.34;;;28.33;36.90
70323;BME280;57735;56.264;43.898;2023-05-24T12:36:10;100759.25;;;28.28;36.80
70323;BME280;57735;56.264;43.898;2023-05-24T12:38:42;100755.06;;;28.20;37.22
70323;BME280;57735;56.264;43.898;2023-05-24T12:41:13;100758.78;;;28.09;37.30
70323;BME280;57735;56.264;43.898;2023-05-24T12:43:44;100754.25;;;27.93;37.63
70323;BME280;57735;56.264;43.898;2023-05-24T12:46:15;100762.81;;;27.53;38.32
70323;BME280;57735;56.264;43.898;2023-05-24T12:48:46;100760.63;;;27.33;38.63
70323;BME280;57735;56.264;43.898;2023-05-24T12:51:17;100759.94;;;27.21;39.15
70323;BME280;57735;56.264;43.898;2023-05-24T12:53:50;100758.91;;;27.05;39.45
70323;BME280;57735;56.264;43.898;2023-05-24T12:56:21;100767.22;;;26.93;39.78
70323;BME280;57735;56.264;43.898;2023-05-24T12:58:54;100764.50;;;26.76;40.25
70323;BME280;57735;56.264;43.898;2023-05-24T13:01:25;100770.00;;;26.60;40.81
70323;BME280;57735;56.264;43.898;2023-05-24T13:03:56;100769.09;;;26.37;41.54
70323;BME280;57735;56.264;43.898;2023-05-24T13:06:27;100773.19;;;26.23;41.72
70323;BME280;57735;56.264;43.898;2023-05-24T13:09:00;100781.13;;;26.08;42.25
70323;BME280;57735;56.264;43.898;2023-05-24T13:11:33;100774.91;;;25.96;42.11
70323;BME280;57735;56.264;43.898;2023-05-24T13:14:04;100769.56;;;25.89;42.08
70323;BME280;57735;56.264;43.898;2023-05-24T13:16:35;100779.44;;;25.90;42.18
70323;BME280;57735;56.264;43.898;2023-05-24T13:19:09;100777.78;;;25.89;42.41
70323;BME280;57735;56.264;43.898;2023-05-24T13:21:40;100775.63;;;25.91;43.01
70323;BME280;57735;56.264;43.898;2023-05-24T13:24:12;100769.75;;;25.99;42.68
70323;BME280;57735;56.264;43.898;2023-05-24T13:26:48;100777.38;;;26.42;41.78
70323;BME280;57735;56.264;43.898;2023-05-24T13:29:18;100772.34;;;26.90;41.03